Time;durP1;ratioP1;P1;durP2;ratioP2;P2;SDS_P1;SDS_P2;PMS_P1;PMS_P2;Temp;Humidity;BMP_temperature;BMP_pressure;BME280_temperature;BME280_humidity;BME280_pressure;Samples;Min_cycle;Max_cycle;Signal;HPM_P1;HPM_P2
2023/04/29 00:01:02;;;;;;;6.70;5.80;;;12.10;99.90;;;;;;4953370;28;20989;-75
2023/04/29 00:03:31;;;;;;;10.90;7.40;;;12.10;99.90;;;;;;4953483;28;20458;-75
2023/04/29 00:05:57;;;;;;;8.33;7.40;;;12.10;99.90;;;;;;4953331;28;20549;-75
2023/04/29 00:08:24;;;;;;;8.37;6.60;;;12.10;99.90;;;;;;4953291;28;20469;-75
2023/04/29 00:10:51;;;;;;;7.70;6.53;;;12.10;99.90;;;;;;4953077;28;20476;-75
2023/04/29 00:13:20;;;;;;;9.87;6.23;;;12.10;99.90;;;;;;4953321;28;20502;-75
2023/04/29 00:15:46;;;;;;;8.57;6.10;;;12.00;99.90;;;;;;4945385;28;20461;-75
2023/04/29 00:18:13;;;;;;;8.40;6.03;;;12.00;99.90;;;;;;4953355;28;20927;-75
2023/04/29 00:20:42;;;;;;;6.10;5.50;;;12.00;99.90;;;;;;4952869;28;20974;-75
2023/04/29 00:23:08;;;;;;;6.40;5.80;;;12.00;99.90;;;;;;4953015;28;20482;-75
2023/04/29 00:25:37;;;;;;;6.23;5.60;;;12.10;99.90;;;;;;4952538;28;20505;-75
2023/04/29 00:28:04;;;;;;;6.90;5.97;;;12.20;99.90;;;;;;4953351;28;20478;-75
2023/04/29 00:30:33;;;;;;;7.13;6.43;;;12.20;99.90;;;;;;4952047;28;20481;-75
2023/04/29 00:32:59;;;;;;;7.70;6.30;;;12.20;99.90;;;;;;4952886;28;20533;-75
2023/04/29 00:35:26;;;;;;;8.03;6.40;;;12.20;99.90;;;;;;4952480;28;20508;-75
2023/04/29 00:37:53;;;;;;;6.00;5.50;;;12.20;99.90;;;;;;4952657;28;20486;-75
2023/04/29 00:40:19;;;;;;;5.27;4.80;;;12.20;99.90;;;;;;4952695;28;21029;-75
2023/04/29 00:42:46;;;;;;;8.90;5.40;;;12.30;99.90;;;;;;4952712;28;20508;-75
2023/04/29 00:45:13;;;;;;;6.10;5.50;;;12.30;99.90;;;;;;4952850;28;20454;-75
2023/04/29 00:47:41;;;;;;;7.07;5.20;;;12.30;99.90;;;;;;4952393;28;20938;-75
2023/04/29 00:50:08;;;;;;;8.03;5.53;;;12.20;99.90;;;;;;4952527;28;20536;-75
2023/04/29 00:52:35;;;;;;;5.80;5.30;;;12.20;99.90;;;;;;4951808;28;20489;-75
2023/04/29 00:55:04;;;;;;;6.53;5.90;;;12.20;99.90;;;;;;4952406;28;20518;-74
2023/04/29 00:57:31;;;;;;;8.50;5.90;;;12.20;99.90;;;;;;4952381;28;20460;-75
2023/04/29 00:59:58;;;;;;;7.50;6.70;;;12.20;99.90;;;;;;4952790;28;20509;-75
2023/04/29 01:02:25;;;;;;;7.23;6.50;;;12.20;99.90;;;;;;4952532;28;20492;-75
2023/04/29 01:04:53;;;;;;;8.60;7.70;;;12.20;99.90;;;;;;4952216;28;20470;-75
2023/04/29 01:07:29;;;;;;;9.53;6.37;;;12.20;99.90;;;;;;4952134;28;20515;-75
2023/04/29 01:10:03;;;;;;;7.63;6.70;;;12.20;99.90;;;;;;4952335;28;20532;-75
2023/04/29 01:12:36;;;;;;;8.07;7.13;;;12.20;99.90;;;;;;4952263;28;20505;-75
2023/04/29 01:15:06;;;;;;;8.40;7.50;;;12.20;99.90;;;;;;4952322;28;20512;-75
2023/04/29 01:17:40;;;;;;;8.43;7.43;;;12.20;99.90;;;;;;4951681;28;20541;-74
2023/04/29 01:20:09;;;;;;;10.70;7.40;;;12.20;99.90;;;;;;4952197;28;20878;-75
2023/04/29 01:22:38;;;;;;;9.10;7.27;;;12.20;99.90;;;;;;4951801;28;20840;-74
2023/04/29 01:25:06;;;;;;;9.60;7.90;;;12.10;99.90;;;;;;4952178;28;20460;-75
2023/04/29 01:27:37;;;;;;;9.43;6.93;;;12.10;99.90;;;;;;4950069;28;20453;-74
2023/04/29 01:30:12;;;;;;;12.20;7.37;;;12.10;99.90;;;;;;4951843;28;20492;-75
2023/04/29 01:32:52;;;;;;;7.40;6.70;;;12.10;99.90;;;;;;4952287;28;20521;-75
2023/04/29 01:35:36;;;;;;;8.10;7.23;;;12.10;99.90;;;;;;4952094;28;20902;-74
2023/04/29 01:38:16;;;;;;;10.03;6.57;;;12.10;99.90;;;;;;4946062;28;20516;-75
2023/04/29 01:40:53;;;;;;;13.17;6.40;;;12.00;99.90;;;;;;4951805;28;20847;-75
2023/04/29 01:43:23;;;;;;;7.53;6.57;;;12.00;99.90;;;;;;4950910;28;20488;-75
2023/04/29 01:45:52;;;;;;;12.40;7.60;;;12.00;99.90;;;;;;4955388;28;20948;-75
2023/04/29 01:48:20;;;;;;;8.90;8.00;;;12.00;99.90;;;;;;4955427;28;20464;-75
2023/04/29 01:50:47;;;;;;;12.90;8.93;;;12.00;99.90;;;;;;4955637;28;20571;-75
2023/04/29 01:53:14;;;;;;;12.97;8.60;;;12.00;99.90;;;;;;4955665;28;20917;-75
2023/04/29 01:55:42;;;;;;;11.70;8.10;;;12.00;99.90;;;;;;4955089;28;20549;-75
2023/04/29 01:58:10;;;;;;;12.10;9.27;;;12.00;99.90;;;;;;4955984;28;20457;-75
2023/04/29 02:00:37;;;;;;;11.77;9.60;;;12.00;99.90;;;;;;4955498;28;20540;-75
2023/04/29 02:03:04;;;;;;;11.43;9.20;;;12.00;99.90;;;;;;4955390;28;20453;-75
2023/04/29 02:05:32;;;;;;;12.00;9.00;;;12.00;99.90;;;;;;4955246;28;20453;-75
2023/04/29 02:07:59;;;;;;;13.43;9.80;;;11.90;99.90;;;;;;4955692;28;20536;-75
2023/04/29 02:10:26;;;;;;;16.13;10.70;;;11.90;99.90;;;;;;4955258;28;20910;-75
2023/04/29 02:12:53;;;;;;;13.47;9.60;;;11.90;99.90;;;;;;4943348;28;20486;-75
2023/04/29 02:15:21;;;;;;;12.60;9.23;;;11.90;99.90;;;;;;4955522;28;20508;-75
2023/04/29 02:17:47;;;;;;;9.90;8.13;;;11.90;99.90;;;;;;4955533;28;20458;-75
2023/04/29 02:20:14;;;;;;;13.97;8.63;;;11.90;99.90;;;;;;4955397;28;20992;-75
2023/04/29 02:22:41;;;;;;;10.60;7.60;;;11.80;99.90;;;;;;4955086;28;20450;-75
2023/04/29 02:25:08;;;;;;;7.70;7.00;;;11.80;99.90;;;;;;4955657;28;20468;-75
2023/04/29 02:27:35;;;;;;;8.70;6.67;;;11.90;99.90;;;;;;4955429;28;20508;-75
2023/04/29 02:30:02;;;;;;;7.20;6.50;;;11.90;99.90;;;;;;4955221;28;20524;-75
2023/04/29 02:32:29;;;;;;;5.57;5.13;;;11.90;99.90;;;;;;4954883;28;20834;-75
2023/04/29 02:34:56;;;;;;;6.57;5.90;;;11.90;99.90;;;;;;4955295;28;20458;-75
2023/04/29 02:37:23;;;;;;;6.90;6.10;;;11.90;99.90;;;;;;4955102;28;20840;-75
2023/04/29 02:39:50;;;;;;;7.10;6.40;;;11.90;99.90;;;;;;4954959;28;20477;-75
2023/04/29 02:42:16;;;;;;;8.07;6.80;;;11.80;99.90;;;;;;4955369;28;20484;-75
2023/04/29 02:44:43;;;;;;;10.10;8.17;;;11.80;99.90;;;;;;4954399;28;20458;-75
2023/04/29 02:47:10;;;;;;;12.97;9.17;;;11.80;99.90;;;;;;4954861;28;20528;-75
2023/04/29 02:49:37;;;;;;;11.30;9.17;;;11.70;99.90;;;;;;4955112;28;20540;-75
2023/04/29 02:52:04;;;;;;;13.50;9.97;;;11.70;99.90;;;;;;4955114;28;20466;-75
2023/04/29 02:54:31;;;;;;;11.60;9.77;;;11.70;99.90;;;;;;4953477;28;20453;-75
2023/04/29 02:56:58;;;;;;;12.23;9.17;;;11.60;99.90;;;;;;4954939;28;20452;-75
2023/04/29 02:59:25;;;;;;;14.70;10.53;;;11.60;99.90;;;;;;4954327;28;20480;-75
2023/04/29 03:01:53;;;;;;;14.57;11.23;;;11.60;99.90;;;;;;4954935;28;20466;-75
2023/04/29 03:04:20;;;;;;;15.13;12.00;;;11.60;99.90;;;;;;4954901;28;20831;-75
2023/04/29 03:06:48;;;;;;;18.43;13.07;;;11.50;99.90;;;;;;4954170;28;20958;-75
2023/04/29 03:09:14;;;;;;;16.80;12.73;;;11.50;99.90;;;;;;4954463;28;21017;-75
2023/04/29 03:11:41;;;;;;;18.63;13.90;;;11.50;99.90;;;;;;4954618;28;20454;-75
2023/04/29 03:14:08;;;;;;;18.97;13.53;;;11.50;99.90;;;;;;4954433;28;21093;-75
2023/04/29 03:16:34;;;;;;;19.30;14.07;;;11.50;99.90;;;;;;4954383;28;20466;-75
2023/04/29 03:19:01;;;;;;;20.17;14.50;;;11.50;99.90;;;;;;4954659;28;20489;-75
2023/04/29 03:21:28;;;;;;;19.97;15.43;;;11.50;99.90;;;;;;4954475;28;21012;-75
2023/04/29 03:23:56;;;;;;;21.47;15.23;;;11.50;99.90;;;;;;4954500;28;20599;-75
2023/04/29 03:26:23;;;;;;;19.50;15.20;;;11.50;99.90;;;;;;4954111;28;20457;-75
2023/04/29 03:28:50;;;;;;;22.60;15.67;;;11.50;99.90;;;;;;4954063;28;20540;-75
2023/04/29 03:31:17;;;;;;;27.80;16.30;;;11.50;99.90;;;;;;4954603;28;20470;-75
2023/04/29 03:33:44;;;;;;;21.43;15.90;;;11.40;99.90;;;;;;4954015;28;21059;-75
2023/04/29 03:36:10;;;;;;;21.23;15.30;;;11.40;99.90;;;;;;4953769;28;20482;-75
2023/04/29 03:38:37;;;;;;;23.60;16.00;;;11.40;99.90;;;;;;4953827;28;21282;-75
2023/04/29 03:41:06;;;;;;;25.30;16.33;;;11.40;99.90;;;;;;4954152;28;20528;-75
2023/04/29 03:43:33;;;;;;;30.60;16.90;;;11.40;99.90;;;;;;4954211;28;20520;-75
2023/04/29 03:45:59;;;;;;;28.40;16.20;;;11.30;99.90;;;;;;4954067;28;20532;-75
2023/04/29 03:48:26;;;;;;;24.40;15.00;;;11.30;99.90;;;;;;4954056;28;20458;-75
2023/04/29 03:50:53;;;;;;;21.23;15.83;;;11.30;99.90;;;;;;4953826;28;20478;-75
2023/04/29 03:53:20;;;;;;;26.17;16.20;;;11.30;99.90;;;;;;4953334;28;20548;-75
2023/04/29 03:55:47;;;;;;;24.33;15.70;;;11.20;99.90;;;;;;4952856;28;20468;-75
2023/04/29 03:58:15;;;;;;;25.33;16.63;;;11.20;99.90;;;;;;4954096;28;20453;-75
2023/04/29 04:00:41;;;;;;;23.93;15.70;;;11.20;99.90;;;;;;4953671;28;21086;-75
2023/04/29 04:03:08;;;;;;;24.00;15.43;;;11.20;99.90;;;;;;4953857;28;20453;-75
2023/04/29 04:05:35;;;;;;;25.90;15.70;;;11.20;99.90;;;;;;4953236;28;20458;-75
2023/04/29 04:08:01;;;;;;;23.23;16.00;;;11.20;99.90;;;;;;4953654;28;20458;-75
2023/04/29 04:10:28;;;;;;;25.87;15.97;;;11.10;99.90;;;;;;4953096;28;20481;-75
2023/04/29 04:12:55;;;;;;;29.20;15.60;;;11.10;99.90;;;;;;4953480;28;20532;-75
2023/04/29 04:15:23;;;;;;;25.17;15.40;;;11.10;99.90;;;;;;4953464;28;20449;-75
2023/04/29 04:17:50;;;;;;;26.30;16.30;;;11.00;99.90;;;;;;4953375;28;20462;-75
2023/04/29 04:20:16;;;;;;;25.50;15.80;;;11.00;99.90;;;;;;4953418;28;20564;-75
2023/04/29 04:22:43;;;;;;;22.00;14.53;;;11.00;99.90;;;;;;4952726;28;20481;-75
2023/04/29 04:25:10;;;;;;;22.70;14.13;;;11.00;99.90;;;;;;4953107;28;20966;-75
2023/04/29 04:27:37;;;;;;;22.97;14.63;;;10.90;99.90;;;;;;4953180;28;21033;-75
2023/04/29 04:30:04;;;;;;;21.97;13.33;;;10.90;99.90;;;;;;4953329;28;20474;-75
2023/04/29 04:32:32;;;;;;;20.83;13.97;;;10.90;99.90;;;;;;4953259;28;20565;-75
2023/04/29 04:34:59;;;;;;;22.00;13.50;;;10.90;99.90;;;;;;4945004;28;20962;-75
2023/04/29 04:37:25;;;;;;;20.53;13.03;;;11.00;99.90;;;;;;4952340;28;20469;-75
2023/04/29 04:39:52;;;;;;;20.30;13.80;;;11.00;99.90;;;;;;4953083;28;20470;-75
2023/04/29 04:42:19;;;;;;;23.20;13.70;;;11.00;99.90;;;;;;4953120;28;20465;-75
2023/04/29 04:44:45;;;;;;;23.27;15.00;;;11.10;99.90;;;;;;4952497;28;20454;-75
2023/04/29 04:47:12;;;;;;;23.60;14.47;;;11.10;99.90;;;;;;4953294;28;20494;-75
2023/04/29 04:49:40;;;;;;;24.13;14.17;;;11.10;99.90;;;;;;4952398;28;20544;-75
2023/04/29 04:52:06;;;;;;;26.37;13.70;;;11.10;99.90;;;;;;4952823;28;20879;-75
2023/04/29 04:54:34;;;;;;;22.43;14.70;;;11.10;99.90;;;;;;4952444;28;20552;-75
2023/04/29 04:57:04;;;;;;;22.63;13.83;;;11.20;99.90;;;;;;4952695;28;20890;-75
2023/04/29 04:59:30;;;;;;;22.47;14.27;;;11.20;99.90;;;;;;4952579;28;21008;-75
2023/04/29 05:01:57;;;;;;;24.70;14.03;;;11.20;99.90;;;;;;4952527;28;20593;-75
2023/04/29 05:04:23;;;;;;;21.23;13.33;;;11.20;99.90;;;;;;4952681;28;21099;-75
2023/04/29 05:06:51;;;;;;;19.50;12.37;;;11.20;99.90;;;;;;4952408;28;20799;-75
2023/04/29 05:09:18;;;;;;;19.93;12.87;;;11.20;99.90;;;;;;4952650;28;20529;-75
2023/04/29 05:11:45;;;;;;;17.13;12.10;;;11.20;99.90;;;;;;4952395;28;20883;-75
2023/04/29 05:14:12;;;;;;;16.50;10.77;;;11.20;99.90;;;;;;4952513;28;20501;-75
2023/04/29 05:16:38;;;;;;;14.37;10.50;;;11.20;99.90;;;;;;4951316;28;20835;-75
2023/04/29 05:19:05;;;;;;;16.97;11.40;;;11.20;99.90;;;;;;4952140;28;20526;-75
2023/04/29 05:21:31;;;;;;;13.57;9.57;;;11.20;99.90;;;;;;4952781;28;20449;-75
2023/04/29 05:23:59;;;;;;;18.27;10.63;;;11.20;99.90;;;;;;4952301;28;20446;-74
2023/04/29 05:26:26;;;;;;;16.37;10.77;;;11.20;99.90;;;;;;4952222;28;20454;-74
2023/04/29 05:28:54;;;;;;;15.53;10.33;;;11.20;99.90;;;;;;4952341;28;20548;-75
2023/04/29 05:31:21;;;;;;;22.60;11.30;;;11.20;99.90;;;;;;4952517;28;20512;-75
2023/04/29 05:33:47;;;;;;;16.80;10.60;;;11.20;99.90;;;;;;4953556;28;20489;-74
2023/04/29 05:36:14;;;;;;;17.90;10.60;;;11.20;99.90;;;;;;4951714;28;21028;-73
2023/04/29 05:38:41;;;;;;;18.23;11.07;;;11.20;99.90;;;;;;4952081;28;20517;-73
2023/04/29 05:41:09;;;;;;;20.47;10.63;;;11.20;99.90;;;;;;4952316;28;20569;-72
2023/04/29 05:43:36;;;;;;;20.13;10.43;;;11.20;99.90;;;;;;4952162;28;20455;-73
2023/04/29 05:46:02;;;;;;;16.47;10.73;;;11.20;99.90;;;;;;4943901;28;21017;-73
2023/04/29 05:48:29;;;;;;;15.30;10.17;;;11.20;99.90;;;;;;4952134;28;20458;-73
2023/04/29 05:50:56;;;;;;;18.30;11.77;;;11.20;99.90;;;;;;4951449;28;20482;-73
2023/04/29 05:53:22;;;;;;;15.47;10.47;;;11.20;99.90;;;;;;4951862;28;20489;-73
2023/04/29 05:55:49;;;;;;;20.57;12.33;;;11.20;99.90;;;;;;4951011;28;20453;-73
2023/04/29 05:58:17;;;;;;;16.93;10.90;;;11.20;99.90;;;;;;4951632;28;20468;-73
2023/04/29 06:00:44;;;;;;;18.00;12.43;;;11.20;99.90;;;;;;4951552;28;20474;-73
2023/04/29 06:03:11;;;;;;;17.73;11.77;;;11.20;99.90;;;;;;4952262;28;20520;-72
2023/04/29 06:05:38;;;;;;;20.10;12.60;;;11.20;99.90;;;;;;4951914;28;20473;-73
2023/04/29 06:08:05;;;;;;;20.13;11.63;;;11.20;99.90;;;;;;4944233;28;20461;-72
2023/04/29 06:10:32;;;;;;;22.17;12.67;;;11.20;99.90;;;;;;4951342;28;20860;-73
2023/04/29 06:12:58;;;;;;;23.27;13.63;;;11.20;99.90;;;;;;4951807;28;20458;-73
2023/04/29 06:15:26;;;;;;;22.77;12.80;;;11.10;99.90;;;;;;4951357;28;20506;-73
2023/04/29 06:17:53;;;;;;;22.97;13.37;;;11.10;99.90;;;;;;4951665;28;20516;-73
2023/04/29 06:20:20;;;;;;;19.47;11.97;;;11.10;99.90;;;;;;4951637;28;20482;-72
2023/04/29 06:22:46;;;;;;;21.77;13.83;;;11.00;99.90;;;;;;4952080;28;20462;-73
2023/04/29 06:25:13;;;;;;;21.70;13.50;;;11.10;99.90;;;;;;4951331;28;20857;-73
2023/04/29 06:27:40;;;;;;;26.67;13.70;;;11.10;99.90;;;;;;4951388;28;21021;-73
2023/04/29 06:30:08;;;;;;;19.60;12.20;;;11.10;99.90;;;;;;4957111;28;20473;-73
2023/04/29 06:32:36;;;;;;;26.23;12.50;;;11.10;99.90;;;;;;4955377;28;20490;-73
2023/04/29 06:35:02;;;;;;;20.83;12.70;;;11.10;99.90;;;;;;4954902;28;20493;-73
2023/04/29 06:37:29;;;;;;;21.40;13.40;;;11.10;99.90;;;;;;4954827;28;20469;-72
2023/04/29 06:39:56;;;;;;;19.83;13.07;;;11.10;99.90;;;;;;4954473;28;20546;-73
2023/04/29 06:42:22;;;;;;;20.37;13.23;;;11.20;99.90;;;;;;4955005;28;20458;-72
2023/04/29 06:44:49;;;;;;;23.33;13.40;;;11.20;99.90;;;;;;4954715;28;20583;-73
2023/04/29 06:47:16;;;;;;;21.00;12.93;;;11.20;99.90;;;;;;4954558;28;20471;-72
2023/04/29 06:49:43;;;;;;;22.57;12.10;;;11.20;99.90;;;;;;4954459;28;20478;-73
2023/04/29 06:52:10;;;;;;;20.50;12.48;;;11.20;99.90;;;;;;4954964;28;20451;-72
2023/04/29 06:54:37;;;;;;;16.57;11.40;;;11.30;99.90;;;;;;4954300;28;20234;-72
2023/04/29 06:57:03;;;;;;;16.83;10.80;;;11.30;99.90;;;;;;4954367;28;20453;-71
2023/04/29 06:59:31;;;;;;;15.43;9.80;;;11.30;99.90;;;;;;4954781;28;20528;-70
2023/04/29 07:01:58;;;;;;;18.27;12.30;;;11.50;99.90;;;;;;4955113;28;20503;-72
2023/04/29 07:04:25;;;;;;;20.27;13.23;;;11.70;99.90;;;;;;4955245;28;20951;-70
2023/04/29 07:06:53;;;;;;;18.20;11.03;;;11.90;99.90;;;;;;4954450;28;20505;-73
2023/04/29 07:09:19;;;;;;;20.30;12.17;;;12.00;99.90;;;;;;4953034;28;20474;-72
2023/04/29 07:11:46;;;;;;;21.27;11.30;;;12.00;99.90;;;;;;4954079;28;20817;-73
2023/04/29 07:14:13;;;;;;;20.57;12.23;;;12.00;99.90;;;;;;4954440;28;21070;-73
2023/04/29 07:16:39;;;;;;;19.83;10.70;;;11.90;99.90;;;;;;4953955;28;20508;-72
2023/04/29 07:19:06;;;;;;;18.87;11.57;;;11.80;99.90;;;;;;4954099;28;20478;-72
2023/04/29 07:21:33;;;;;;;18.53;10.90;;;11.80;99.90;;;;;;4954720;28;20453;-72
2023/04/29 07:24:03;;;;;;;15.47;10.17;;;11.70;99.90;;;;;;4954219;28;20454;-73
2023/04/29 07:26:30;;;;;;;14.83;9.93;;;11.70;99.90;;;;;;4953831;28;20493;-73
2023/04/29 07:28:57;;;;;;;13.20;9.80;;;11.70;99.90;;;;;;4954113;28;20481;-73
2023/04/29 07:31:23;;;;;;;14.40;9.60;;;11.70;99.90;;;;;;4953369;28;20458;-73
2023/04/29 07:33:50;;;;;;;16.67;10.00;;;11.60;99.90;;;;;;4953433;28;21072;-72
2023/04/29 07:36:16;;;;;;;18.57;10.33;;;11.70;99.90;;;;;;4953416;28;20520;-72
2023/04/29 07:38:43;;;;;;;16.20;10.30;;;11.70;99.90;;;;;;4953474;28;20458;-72
2023/04/29 07:41:11;;;;;;;14.80;9.40;;;11.70;99.90;;;;;;4952882;28;20532;-72
2023/04/29 07:43:38;;;;;;;14.90;9.80;;;11.70;99.90;;;;;;4952925;28;20465;-72
2023/04/29 07:46:04;;;;;;;15.10;10.30;;;11.80;99.90;;;;;;4953190;28;20520;-71
2023/04/29 07:48:31;;;;;;;14.37;10.50;;;11.80;99.90;;;;;;4953394;28;20465;-71
2023/04/29 07:50:59;;;;;;;15.60;10.20;;;11.80;99.90;;;;;;4953090;28;20486;-72
2023/04/29 07:53:25;;;;;;;17.07;10.53;;;11.90;99.90;;;;;;4953151;28;20524;-73
2023/04/29 07:55:52;;;;;;;20.30;11.30;;;11.90;99.90;;;;;;4952527;28;20489;-73
2023/04/29 07:58:20;;;;;;;14.77;10.13;;;11.90;99.90;;;;;;4953397;28;20517;-71
2023/04/29 08:00:47;;;;;;;15.20;9.70;;;12.00;99.90;;;;;;4952901;28;20537;-72
2023/04/29 08:03:13;;;;;;;15.43;10.17;;;11.90;99.90;;;;;;4953235;28;20477;-71
2023/04/29 08:05:42;;;;;;;17.13;9.87;;;11.90;99.90;;;;;;4952942;28;20877;-73
2023/04/29 08:08:08;;;;;;;14.80;9.77;;;11.90;99.90;;;;;;4944900;28;20574;-72
2023/04/29 08:10:39;;;;;;;16.67;10.27;;;11.90;99.90;;;;;;4952631;28;20897;-74
2023/04/29 08:13:07;;;;;;;14.50;10.17;;;12.00;99.90;;;;;;4952706;28;21005;-72
2023/04/29 08:15:35;;;;;;;17.20;11.40;;;12.00;99.90;;;;;;4952556;28;20497;-72
2023/04/29 08:18:01;;;;;;;20.40;10.70;;;12.00;99.90;;;;;;4952721;28;20461;-72
2023/04/29 08:20:28;;;;;;;18.13;11.60;;;12.10;99.90;;;;;;4952258;28;20544;-72
2023/04/29 08:22:54;;;;;;;20.37;12.03;;;12.10;99.90;;;;;;4951769;28;20462;-72
2023/04/29 08:25:21;;;;;;;16.03;10.80;;;12.20;99.90;;;;;;4952733;28;20512;-72
2023/04/29 08:27:48;;;;;;;18.33;11.30;;;12.20;99.90;;;;;;4952541;28;20458;-72
2023/04/29 08:30:15;;;;;;;18.40;11.23;;;12.20;99.90;;;;;;4952240;28;20481;-72
2023/04/29 08:32:43;;;;;;;14.90;10.07;;;12.10;99.90;;;;;;4952556;28;20454;-72
2023/04/29 08:35:10;;;;;;;14.30;9.80;;;12.00;99.90;;;;;;4951718;28;20485;-72
2023/04/29 08:37:36;;;;;;;17.70;10.20;;;11.90;99.90;;;;;;4952384;28;20466;-73
2023/04/29 08:40:04;;;;;;;14.80;9.80;;;11.90;99.90;;;;;;4952250;28;20492;-73
2023/04/29 08:42:35;;;;;;;15.80;10.77;;;11.90;99.90;;;;;;4952435;28;20465;-72
2023/04/29 08:45:02;;;;;;;18.33;10.63;;;11.90;99.90;;;;;;4952346;28;21025;-73
2023/04/29 08:47:30;;;;;;;11.23;8.23;;;12.00;99.90;;;;;;4951942;28;20466;-72
2023/04/29 08:50:02;;;;;;;13.83;9.17;;;12.30;99.90;;;;;;4951677;28;20488;-73
2023/04/29 08:52:28;;;;;;;13.70;7.90;;;12.60;99.90;;;;;;4951516;28;20493;-72
2023/04/29 08:54:55;;;;;;;11.83;7.17;;;13.20;99.90;;;;;;4952080;28;20498;-73
2023/04/29 08:57:23;;;;;;;8.03;6.07;;;13.80;99.90;;;;;;4952056;28;20464;-73
2023/04/29 08:59:50;;;;;;;8.80;6.27;;;14.20;99.90;;;;;;4951291;28;20473;-73
2023/04/29 09:02:20;;;;;;;9.97;6.90;;;14.30;99.90;;;;;;4951713;28;20462;-73
2023/04/29 09:04:51;;;;;;;8.47;5.17;;;14.30;99.90;;;;;;4951347;28;21052;-72
2023/04/29 09:07:19;;;;;;;6.80;4.60;;;14.50;99.90;;;;;;4952029;28;20465;-72
2023/04/29 09:09:47;;;;;;;6.87;5.07;;;14.70;99.90;;;;;;4951736;28;20990;-72
2023/04/29 09:12:13;;;;;;;4.37;4.00;;;14.70;99.90;;;;;;4944382;28;20460;-72
2023/04/29 09:14:40;;;;;;;5.93;4.30;;;14.80;99.90;;;;;;4951486;28;21009;-72
2023/04/29 09:17:07;;;;;;;5.23;3.90;;;14.90;99.90;;;;;;4951775;28;20457;-73
2023/04/29 09:19:35;;;;;;;4.00;3.60;;;15.00;99.90;;;;;;4951324;28;20481;-72
2023/04/29 09:22:03;;;;;;;3.17;2.90;;;14.90;99.90;;;;;;4951697;28;20462;-72
2023/04/29 09:24:31;;;;;;;2.57;2.37;;;14.90;99.90;;;;;;4951765;28;20458;-73
2023/04/29 09:26:58;;;;;;;2.97;2.67;;;15.00;99.90;;;;;;4951107;28;21029;-73
2023/04/29 09:29:25;;;;;;;2.73;2.50;;;15.00;99.90;;;;;;4951820;28;20482;-73
2023/04/29 09:31:53;;;;;;;3.03;2.83;;;15.20;99.90;;;;;;4951373;28;20757;-73
2023/04/29 09:34:31;;;;;;;2.80;2.60;;;15.40;99.90;;;;;;4951777;28;20550;-72
2023/04/29 09:36:58;;;;;;;3.53;3.23;;;15.60;99.90;;;;;;4947606;28;21041;-72
2023/04/29 09:39:25;;;;;;;2.80;2.60;;;15.60;99.90;;;;;;4950488;28;20489;-73
2023/04/29 09:42:02;;;;;;;2.47;2.27;;;15.60;99.90;;;;;;4950778;28;20477;-72
2023/04/29 09:44:30;;;;;;;2.70;2.50;;;15.60;99.90;;;;;;4951250;28;20470;-71
2023/04/29 09:46:58;;;;;;;2.70;2.50;;;15.60;99.90;;;;;;4950058;28;20530;-73
2023/04/29 09:49:26;;;;;;;2.80;2.60;;;15.70;99.90;;;;;;4951170;28;20499;-73
2023/04/29 09:51:54;;;;;;;5.63;2.43;;;15.70;99.90;;;;;;4951068;28;20911;-72
2023/04/29 09:54:21;;;;;;;2.80;2.60;;;15.60;99.90;;;;;;4951267;28;20472;-73
2023/04/29 09:56:50;;;;;;;3.90;2.87;;;15.50;99.90;;;;;;4950386;28;20454;-73
2023/04/29 09:59:18;;;;;;;3.90;3.60;;;15.60;99.90;;;;;;4951198;28;20565;-73
2023/04/29 10:01:48;;;;;;;4.83;4.20;;;15.70;99.90;;;;;;4950945;28;21301;-73
2023/04/29 10:04:16;;;;;;;5.83;5.23;;;15.70;99.90;;;;;;4953297;28;21011;-73
2023/04/29 10:06:45;;;;;;;3.70;3.40;;;15.60;99.90;;;;;;4955407;28;20458;-73
2023/04/29 10:09:16;;;;;;;4.00;3.67;;;15.50;99.90;;;;;;4954891;28;20454;-72
2023/04/29 10:11:43;;;;;;;6.03;4.80;;;15.30;99.90;;;;;;4955242;28;20461;-73
2023/04/29 10:14:13;;;;;;;6.53;5.50;;;15.30;99.90;;;;;;4953661;28;20535;-73
2023/04/29 10:16:46;;;;;;;6.43;5.83;;;15.30;99.90;;;;;;4956310;28;20583;-73
2023/04/29 10:19:18;;;;;;;6.30;5.70;;;15.40;99.90;;;;;;4956251;28;20954;-73
2023/04/29 10:21:48;;;;;;;4.00;3.70;;;15.60;99.90;;;;;;4955289;28;20504;-73
2023/04/29 10:24:17;;;;;;;4.30;3.57;;;15.90;99.90;;;;;;4955237;28;20458;-74
2023/04/29 10:26:44;;;;;;;4.80;3.70;;;16.20;99.90;;;;;;4950602;28;20462;-74
2023/04/29 10:29:13;;;;;;;4.90;3.30;;;16.20;99.90;;;;;;4954638;28;20469;-74
2023/04/29 10:31:42;;;;;;;5.33;3.90;;;16.10;99.90;;;;;;4954686;28;20454;-73
2023/04/29 10:34:09;;;;;;;4.40;4.03;;;16.00;99.90;;;;;;4955023;28;20454;-75
2023/04/29 10:36:37;;;;;;;4.00;3.70;;;15.80;99.90;;;;;;4954781;28;20493;-73
2023/04/29 10:39:09;;;;;;;4.20;3.87;;;15.50;99.90;;;;;;4954465;28;20465;-74
2023/04/29 10:41:44;;;;;;;4.00;3.70;;;15.30;99.90;;;;;;4954172;28;20457;-75
2023/04/29 10:44:11;;;;;;;7.60;5.20;;;15.10;99.90;;;;;;4954491;28;20559;-72
2023/04/29 10:46:37;;;;;;;5.00;4.00;;;14.90;99.90;;;;;;4954371;28;20460;-72
2023/04/29 10:49:06;;;;;;;3.80;3.40;;;14.70;99.90;;;;;;4954337;28;20458;-72
2023/04/29 10:51:34;;;;;;;4.00;2.90;;;14.50;99.90;;;;;;4948778;28;20465;-72
2023/04/29 10:54:03;;;;;;;3.27;3.07;;;14.30;99.90;;;;;;4953764;28;20524;-73
2023/04/29 10:56:37;;;;;;;3.00;2.80;;;14.10;99.90;;;;;;4953411;28;20544;-72
2023/04/29 10:59:04;;;;;;;3.10;2.80;;;14.00;99.90;;;;;;4954116;28;20466;-72
2023/04/29 11:01:47;;;;;;;3.63;3.33;;;13.90;99.90;;;;;;4954472;28;20549;-72
2023/04/29 11:04:16;;;;;;;4.83;4.23;;;13.90;99.90;;;;;;4952510;28;20457;-72
2023/04/29 11:06:46;;;;;;;9.40;7.00;;;13.90;99.90;;;;;;4954389;28;20444;-73
2023/04/29 11:09:15;;;;;;;8.80;6.40;;;14.00;99.90;;;;;;4954016;28;20549;-74
2023/04/29 11:12:01;;;;;;;9.73;6.20;;;14.00;99.90;;;;;;4953903;28;20461;-74
2023/04/29 11:14:31;;;;;;;8.70;7.03;;;14.10;99.90;;;;;;4953736;28;20478;-73
2023/04/29 11:16:59;;;;;;;7.00;6.30;;;14.20;99.90;;;;;;4953558;28;20520;-74
2023/04/29 11:19:32;;;;;;;7.97;6.30;;;14.30;99.90;;;;;;4953018;28;20474;-73
2023/04/29 11:22:12;;;;;;;8.60;5.13;;;14.30;99.90;;;;;;4953692;28;20541;-73
2023/04/29 11:24:53;;;;;;;5.20;4.70;;;14.40;99.90;;;;;;4953569;28;20465;-73
2023/04/29 11:27:24;;;;;;;3.80;3.50;;;14.50;99.90;;;;;;4953381;28;20981;-72
2023/04/29 11:29:51;;;;;;;6.57;3.67;;;14.50;99.90;;;;;;4953659;28;20549;-73
2023/04/29 11:32:20;;;;;;;3.43;3.13;;;14.40;99.90;;;;;;4953992;28;21023;-72
2023/04/29 11:34:48;;;;;;;3.83;2.70;;;14.40;99.90;;;;;;4953006;28;20907;-71
2023/04/29 11:37:20;;;;;;;3.88;2.80;;;14.40;99.90;;;;;;4952387;28;20452;-70
2023/04/29 11:39:47;;;;;;;3.50;3.20;;;14.30;99.90;;;;;;4953951;28;20230;-71
2023/04/29 11:42:19;;;;;;;3.50;2.90;;;14.10;99.90;;;;;;4953328;28;21021;-70
2023/04/29 11:44:45;;;;;;;6.13;3.47;;;13.90;99.90;;;;;;4953564;28;20532;-69
2023/04/29 11:47:12;;;;;;;3.30;3.10;;;13.80;99.90;;;;;;4952893;28;20528;-70
2023/04/29 11:49:39;;;;;;;3.33;3.13;;;13.80;99.90;;;;;;4953278;28;20481;-71
2023/04/29 11:52:07;;;;;;;4.25;2.78;;;13.70;99.90;;;;;;4952664;28;20924;-70
2023/04/29 11:54:34;;;;;;;3.30;3.00;;;13.70;99.90;;;;;;4953051;28;20266;-70
2023/04/29 11:57:03;;;;;;;2.83;2.63;;;13.70;99.90;;;;;;4952690;28;20467;-72
2023/04/29 11:59:31;;;;;;;3.30;3.10;;;13.70;99.90;;;;;;4953001;28;20232;-70
2023/04/29 12:01:59;;;;;;;3.67;3.37;;;13.70;99.90;;;;;;4953108;28;20832;-70
2023/04/29 12:04:25;;;;;;;2.80;2.60;;;13.80;99.90;;;;;;4953071;28;20480;-71
2023/04/29 12:06:52;;;;;;;5.10;2.63;;;13.80;99.90;;;;;;4951613;28;20467;-69
2023/04/29 12:09:20;;;;;;;2.67;2.47;;;13.90;99.90;;;;;;4952277;28;20230;-69
2023/04/29 12:11:48;;;;;;;3.30;2.80;;;14.00;99.90;;;;;;4952991;28;20506;-70
2023/04/29 12:14:16;;;;;;;2.30;2.10;;;14.10;99.90;;;;;;4951087;28;20475;-69
2023/04/29 12:16:42;;;;;;;2.90;2.70;;;14.20;99.90;;;;;;4952769;28;20289;-69
2023/04/29 12:19:10;;;;;;;2.60;2.40;;;14.30;99.90;;;;;;4952196;28;21018;-69
2023/04/29 12:21:47;;;;;;;2.20;2.10;;;14.40;99.90;;;;;;4953073;28;20462;-68
2023/04/29 12:24:15;;;;;;;2.90;2.70;;;14.40;99.90;;;;;;4951419;28;20516;-69
2023/04/29 12:26:45;;;;;;;2.90;2.70;;;14.60;99.90;;;;;;4951663;28;20517;-69
2023/04/29 12:29:12;;;;;;;2.37;2.23;;;14.70;99.90;;;;;;4952889;28;20889;-69
2023/04/29 12:31:39;;;;;;;2.95;2.75;;;14.90;99.90;;;;;;4951703;28;20451;-69
2023/04/29 12:34:07;;;;;;;3.50;3.20;;;15.00;99.90;;;;;;4952221;28;20675;-70
2023/04/29 12:36:33;;;;;;;2.87;2.67;;;15.20;99.90;;;;;;4952000;28;20559;-69
2023/04/29 12:39:01;;;;;;;2.53;2.33;;;15.40;99.90;;;;;;4951459;28;20448;-70
2023/04/29 12:41:37;;;;;;;2.90;2.70;;;15.60;99.90;;;;;;4952803;28;20218;-69